sensor_id;sensor_type;location;lat;lon;timestamp;pressure;altitude;pressure_sealevel;temperature;humidity
40838;BME280;29632;49.168;9.848;2022-07-29T00:00:07;96662.56;;;27.27;33.35
40838;BME280;29632;49.168;9.848;2022-07-29T00:02:34;96666.81;;;27.23;33.21
40838;BME280;29632;49.168;9.848;2022-07-29T00:05:00;96675.09;;;27.21;33.15
40838;BME280;29632;49.168;9.848;2022-07-29T00:07:26;96669.69;;;27.16;33.28
40838;BME280;29632;49.168;9.848;2022-07-29T00:09:51;96669.94;;;27.15;33.51
40838;BME280;29632;49.168;9.848;2022-07-29T00:12:19;96674.97;;;27.11;33.47
40838;BME280;29632;49.168;9.848;2022-07-29T00:14:45;96670.38;;;27.06;33.37
40838;BME280;29632;49.168;9.848;2022-07-29T00:17:11;96670.59;;;27.00;33.89
40838;BME280;29632;49.168;9.848;2022-07-29T00:19:36;96668.19;;;26.98;33.76
40838;BME280;29632;49.168;9.848;2022-07-29T00:22:02;96666.00;;;26.95;33.83
40838;BME280;29632;49.168;9.848;2022-07-29T00:24:28;96667.81;;;26.89;34.02
40838;BME280;29632;49.168;9.848;2022-07-29T00:26:54;96672.88;;;26.86;34.03
40838;BME280;29632;49.168;9.848;2022-07-29T00:29:19;96670.44;;;26.84;33.83
40838;BME280;29632;49.168;9.848;2022-07-29T00:31:45;96658.38;;;26.82;34.11
40838;BME280;29632;49.168;9.848;2022-07-29T00:34:11;96656.47;;;26.77;34.26
40838;BME280;29632;49.168;9.848;2022-07-29T00:36:57;96660.69;;;26.73;34.39
40838;BME280;29632;49.168;9.848;2022-07-29T00:39:23;96657.72;;;26.69;34.33
40838;BME280;29632;49.168;9.848;2022-07-29T00:41:49;96656.84;;;26.64;34.44
40838;BME280;29632;49.168;9.848;2022-07-29T00:44:16;96659.91;;;26.55;34.58
40838;BME280;29632;49.168;9.848;2022-07-29T00:46:41;96658.81;;;26.51;34.56
40838;BME280;29632;49.168;9.848;2022-07-29T00:49:08;96647.34;;;26.51;34.74
40838;BME280;29632;49.168;9.848;2022-07-29T00:51:37;96647.06;;;26.52;34.90
40838;BME280;29632;49.168;9.848;2022-07-29T00:54:04;96647.66;;;26.54;35.14
40838;BME280;29632;49.168;9.848;2022-07-29T00:56:32;96650.56;;;26.53;35.02
40838;BME280;29632;49.168;9.848;2022-07-29T00:58:59;96653.22;;;26.53;35.11
40838;BME280;29632;49.168;9.848;2022-07-29T01:01:26;96660.41;;;26.52;35.26
40838;BME280;29632;49.168;9.848;2022-07-29T01:03:52;96667.63;;;26.52;35.18
40838;BME280;29632;49.168;9.848;2022-07-29T01:06:18;96663.03;;;26.47;35.25
40838;BME280;29632;49.168;9.848;2022-07-29T01:08:45;96659.50;;;26.42;35.44
40838;BME280;29632;49.168;9.848;2022-07-29T01:11:13;96646.38;;;26.40;35.49
40838;BME280;29632;49.168;9.848;2022-07-29T01:13:40;96636.22;;;26.37;35.51
40838;BME280;29632;49.168;9.848;2022-07-29T01:16:30;96650.00;;;26.29;35.93
40838;BME280;29632;49.168;9.848;2022-07-29T01:19:07;96649.69;;;26.25;35.95
40838;BME280;29632;49.168;9.848;2022-07-29T01:21:52;96652.53;;;26.18;36.06
40838;BME280;29632;49.168;9.848;2022-07-29T01:27:20;96647.13;;;26.13;35.99
40838;BME280;29632;49.168;9.848;2022-07-29T01:30:01;96633.41;;;26.05;36.37
40838;BME280;29632;49.168;9.848;2022-07-29T01:32:34;96640.53;;;25.99;36.17
40838;BME280;29632;49.168;9.848;2022-07-29T01:35:20;96639.88;;;25.92;36.45
40838;BME280;29632;49.168;9.848;2022-07-29T01:38:18;96638.16;;;25.86;36.62
40838;BME280;29632;49.168;9.848;2022-07-29T01:40:58;96627.66;;;25.79;36.48
40838;BME280;29632;49.168;9.848;2022-07-29T01:43:55;96622.84;;;25.76;36.39
40838;BME280;29632;49.168;9.848;2022-07-29T01:46:34;96625.66;;;25.69;36.53
40838;BME280;29632;49.168;9.848;2022-07-29T01:49:11;96618.47;;;25.70;36.82
40838;BME280;29632;49.168;9.848;2022-07-29T01:51:56;96622.69;;;25.66;36.94
40838;BME280;29632;49.168;9.848;2022-07-29T01:54:38;96629.53;;;25.61;36.93
40838;BME280;29632;49.168;9.848;2022-07-29T01:57:11;96628.50;;;25.62;36.99
40838;BME280;29632;49.168;9.848;2022-07-29T01:59:38;96623.66;;;25.59;36.89
40838;BME280;29632;49.168;9.848;2022-07-29T02:02:08;96620.91;;;25.54;37.10
40838;BME280;29632;49.168;9.848;2022-07-29T02:04:36;96620.09;;;25.54;37.09
40838;BME280;29632;49.168;9.848;2022-07-29T02:07:06;96621.41;;;25.51;37.30
40838;BME280;29632;49.168;9.848;2022-07-29T02:09:35;96618.16;;;25.49;37.19
40838;BME280;29632;49.168;9.848;2022-07-29T02:12:03;96625.28;;;25.43;37.44
40838;BME280;29632;49.168;9.848;2022-07-29T02:14:37;96621.72;;;25.38;37.46
40838;BME280;29632;49.168;9.848;2022-07-29T02:17:03;96617.44;;;25.37;37.39
40838;BME280;29632;49.168;9.848;2022-07-29T02:19:32;96619.78;;;25.33;37.67
40838;BME280;29632;49.168;9.848;2022-07-29T02:22:00;96618.66;;;25.29;37.51
40838;BME280;29632;49.168;9.848;2022-07-29T02:24:26;96622.00;;;25.24;37.81
40838;BME280;29632;49.168;9.848;2022-07-29T02:26:55;96621.91;;;25.19;37.73
40838;BME280;29632;49.168;9.848;2022-07-29T02:29:24;96622.66;;;25.15;38.01
40838;BME280;29632;49.168;9.848;2022-07-29T02:31:51;96625.78;;;25.12;38.07
40838;BME280;29632;49.168;9.848;2022-07-29T02:34:20;96626.28;;;25.09;37.90
40838;BME280;29632;49.168;9.848;2022-07-29T02:36:46;96627.81;;;25.04;38.00
40838;BME280;29632;49.168;9.848;2022-07-29T02:39:14;96628.84;;;25.03;37.96
40838;BME280;29632;49.168;9.848;2022-07-29T02:41:46;96627.16;;;24.97;38.23
40838;BME280;29632;49.168;9.848;2022-07-29T02:44:18;96623.34;;;24.93;38.29
40838;BME280;29632;49.168;9.848;2022-07-29T02:47:04;96624.31;;;24.87;38.50
40838;BME280;29632;49.168;9.848;2022-07-29T02:50:02;96618.09;;;24.81;38.52
40838;BME280;29632;49.168;9.848;2022-07-29T02:52:39;96615.56;;;24.75;38.50
40838;BME280;29632;49.168;9.848;2022-07-29T02:55:30;96618.69;;;24.72;38.40
40838;BME280;29632;49.168;9.848;2022-07-29T02:58:05;96613.97;;;24.62;37.77
40838;BME280;29632;49.168;9.848;2022-07-29T03:00:36;96620.34;;;24.61;38.22
40838;BME280;29632;49.168;9.848;2022-07-29T03:03:04;96617.13;;;24.47;38.07
40838;BME280;29632;49.168;9.848;2022-07-29T03:05:33;96616.34;;;24.46;37.81
40838;BME280;29632;49.168;9.848;2022-07-29T03:08:04;96619.22;;;24.45;38.24
40838;BME280;29632;49.168;9.848;2022-07-29T03:10:32;96623.16;;;24.42;38.60
40838;BME280;29632;49.168;9.848;2022-07-29T03:12:58;96620.38;;;24.37;38.48
40838;BME280;29632;49.168;9.848;2022-07-29T03:15:26;96617.63;;;24.32;38.65
40838;BME280;29632;49.168;9.848;2022-07-29T03:17:52;96612.78;;;24.29;38.81
40838;BME280;29632;49.168;9.848;2022-07-29T03:20:19;96613.03;;;24.27;38.41
40838;BME280;29632;49.168;9.848;2022-07-29T03:22:45;96617.19;;;24.23;38.53
40838;BME280;29632;49.168;9.848;2022-07-29T03:25:16;96615.25;;;24.19;38.63
40838;BME280;29632;49.168;9.848;2022-07-29T03:27:43;96617.34;;;24.17;38.92
40838;BME280;29632;49.168;9.848;2022-07-29T03:30:11;96615.94;;;24.14;38.76
40838;BME280;29632;49.168;9.848;2022-07-29T03:32:37;96613.75;;;24.11;39.05
40838;BME280;29632;49.168;9.848;2022-07-29T03:35:05;96610.50;;;24.09;39.18
40838;BME280;29632;49.168;9.848;2022-07-29T03:37:31;96609.72;;;24.08;39.10
40838;BME280;29632;49.168;9.848;2022-07-29T03:40:01;96610.75;;;24.07;39.16
40838;BME280;29632;49.168;9.848;2022-07-29T03:42:31;96616.78;;;24.03;39.49
40838;BME280;29632;49.168;9.848;2022-07-29T03:45:03;96613.53;;;24.01;39.35
40838;BME280;29632;49.168;9.848;2022-07-29T03:47:31;96618.25;;;23.99;39.36
40838;BME280;29632;49.168;9.848;2022-07-29T03:50:05;96628.56;;;23.95;39.60
40838;BME280;29632;49.168;9.848;2022-07-29T03:52:31;96619.91;;;23.88;39.41
40838;BME280;29632;49.168;9.848;2022-07-29T03:54:57;96624.66;;;23.86;39.47
40838;BME280;29632;49.168;9.848;2022-07-29T03:57:28;96620.00;;;23.81;39.73
40838;BME280;29632;49.168;9.848;2022-07-29T03:59:56;96617.34;;;23.81;39.47
40838;BME280;29632;49.168;9.848;2022-07-29T04:02:23;96618.75;;;23.84;39.72
40838;BME280;29632;49.168;9.848;2022-07-29T04:04:51;96617.94;;;23.83;39.66
40838;BME280;29632;49.168;9.848;2022-07-29T04:07:17;96630.66;;;23.81;39.70
40838;BME280;29632;49.168;9.848;2022-07-29T04:09:43;96624.72;;;23.79;39.84
40838;BME280;29632;49.168;9.848;2022-07-29T04:12:09;96626.03;;;23.77;39.95
40838;BME280;29632;49.168;9.848;2022-07-29T04:14:35;96629.47;;;23.77;40.05
40838;BME280;29632;49.168;9.848;2022-07-29T04:17:03;96627.28;;;23.74;39.94
40838;BME280;29632;49.168;9.848;2022-07-29T04:19:29;96627.28;;;23.74;40.10
40838;BME280;29632;49.168;9.848;2022-07-29T04:21:56;96623.25;;;23.71;40.29
40838;BME280;29632;49.168;9.848;2022-07-29T04:24:22;96636.19;;;23.68;40.30
40838;BME280;29632;49.168;9.848;2022-07-29T04:26:47;96625.66;;;23.61;40.22
40838;BME280;29632;49.168;9.848;2022-07-29T04:29:13;96630.63;;;23.58;40.24
40838;BME280;29632;49.168;9.848;2022-07-29T04:31:40;96628.19;;;23.56;40.42
40838;BME280;29632;49.168;9.848;2022-07-29T04:34:07;96631.09;;;23.54;40.41
40838;BME280;29632;49.168;9.848;2022-07-29T04:36:33;96630.06;;;23.55;40.79
40838;BME280;29632;49.168;9.848;2022-07-29T04:38:59;96626.13;;;23.58;40.60
40838;BME280;29632;49.168;9.848;2022-07-29T04:41:26;96621.59;;;23.59;40.80
40838;BME280;29632;49.168;9.848;2022-07-29T04:43:52;96616.50;;;23.57;41.05
40838;BME280;29632;49.168;9.848;2022-07-29T04:46:18;96624.25;;;23.59;41.19
40838;BME280;29632;49.168;9.848;2022-07-29T04:48:45;96624.03;;;23.60;40.93
40838;BME280;29632;49.168;9.848;2022-07-29T04:51:12;96616.63;;;23.62;41.27
40838;BME280;29632;49.168;9.848;2022-07-29T04:53:38;96624.72;;;23.67;41.14
40838;BME280;29632;49.168;9.848;2022-07-29T04:56:04;96628.78;;;23.70;41.16
40838;BME280;29632;49.168;9.848;2022-07-29T04:58:29;96626.69;;;23.72;41.41
40838;BME280;29632;49.168;9.848;2022-07-29T05:00:55;96626.81;;;23.77;41.15
40838;BME280;29632;49.168;9.848;2022-07-29T05:03:21;96625.34;;;23.81;41.13
40838;BME280;29632;49.168;9.848;2022-07-29T05:05:47;96627.09;;;23.87;41.07
40838;BME280;29632;49.168;9.848;2022-07-29T05:08:12;96623.97;;;23.90;41.04
40838;BME280;29632;49.168;9.848;2022-07-29T05:10:38;96625.91;;;23.95;41.47
40838;BME280;29632;49.168;9.848;2022-07-29T05:13:07;96633.19;;;24.00;41.12
40838;BME280;29632;49.168;9.848;2022-07-29T05:15:34;96639.66;;;24.04;40.67
40838;BME280;29632;49.168;9.848;2022-07-29T05:18:01;96640.00;;;24.07;40.91
40838;BME280;29632;49.168;9.848;2022-07-29T05:20:28;96644.50;;;24.07;41.04
40838;BME280;29632;49.168;9.848;2022-07-29T05:22:56;96647.75;;;24.09;40.72
40838;BME280;29632;49.168;9.848;2022-07-29T05:25:28;96646.72;;;24.10;40.62
40838;BME280;29632;49.168;9.848;2022-07-29T05:27:54;96647.75;;;24.09;41.00
40838;BME280;29632;49.168;9.848;2022-07-29T05:30:21;96645.66;;;24.11;40.68
40838;BME280;29632;49.168;9.848;2022-07-29T05:32:47;96650.06;;;24.17;40.90
40838;BME280;29632;49.168;9.848;2022-07-29T05:35:14;96649.72;;;24.25;40.96
40838;BME280;29632;49.168;9.848;2022-07-29T05:37:40;96649.22;;;24.28;40.70
40838;BME280;29632;49.168;9.848;2022-07-29T05:40:07;96646.09;;;24.31;40.65
40838;BME280;29632;49.168;9.848;2022-07-29T05:42:33;96651.53;;;24.37;40.46
40838;BME280;29632;49.168;9.848;2022-07-29T05:45:00;96653.25;;;24.43;40.62
40838;BME280;29632;49.168;9.848;2022-07-29T05:47:26;96654.72;;;24.50;40.18
40838;BME280;29632;49.168;9.848;2022-07-29T05:49:51;96658.09;;;24.58;40.10
40838;BME280;29632;49.168;9.848;2022-07-29T05:52:17;96657.72;;;24.66;40.25
40838;BME280;29632;49.168;9.848;2022-07-29T05:54:43;96659.19;;;24.74;40.28
40838;BME280;29632;49.168;9.848;2022-07-29T05:57:19;96664.16;;;24.82;40.38
40838;BME280;29632;49.168;9.848;2022-07-29T05:59:46;96657.63;;;24.90;39.76
40838;BME280;29632;49.168;9.848;2022-07-29T06:02:12;96665.25;;;24.98;39.93
40838;BME280;29632;49.168;9.848;2022-07-29T06:04:38;96665.66;;;25.06;39.93
40838;BME280;29632;49.168;9.848;2022-07-29T06:07:04;96662.63;;;25.15;39.58
40838;BME280;29632;49.168;9.848;2022-07-29T06:09:31;96670.44;;;25.21;39.57
40838;BME280;29632;49.168;9.848;2022-07-29T06:11:57;96665.00;;;25.28;39.66
40838;BME280;29632;49.168;9.848;2022-07-29T06:14:24;96668.31;;;25.35;39.35
40838;BME280;29632;49.168;9.848;2022-07-29T06:16:50;96672.69;;;25.41;39.39
40838;BME280;29632;49.168;9.848;2022-07-29T06:19:16;96670.69;;;25.49;39.30
40838;BME280;29632;49.168;9.848;2022-07-29T06:21:45;96673.19;;;25.55;39.41
40838;BME280;29632;49.168;9.848;2022-07-29T06:24:13;96673.28;;;25.60;39.38
40838;BME280;29632;49.168;9.848;2022-07-29T06:26:40;96675.19;;;25.65;39.11
40838;BME280;29632;49.168;9.848;2022-07-29T06:29:07;96669.69;;;25.72;39.38
40838;BME280;29632;49.168;9.848;2022-07-29T06:31:34;96662.84;;;25.76;39.25
40838;BME280;29632;49.168;9.848;2022-07-29T06:34:00;96666.38;;;25.81;39.63
40838;BME280;29632;49.168;9.848;2022-07-29T06:36:26;96668.06;;;25.88;39.74
40838;BME280;29632;49.168;9.848;2022-07-29T06:38:51;96665.25;;;25.94;39.72
40838;BME280;29632;49.168;9.848;2022-07-29T06:41:17;96659.53;;;26.03;39.74
40838;BME280;29632;49.168;9.848;2022-07-29T06:43:44;96660.16;;;26.10;39.68
40838;BME280;29632;49.168;9.848;2022-07-29T06:46:14;96664.00;;;26.19;39.74
40838;BME280;29632;49.168;9.848;2022-07-29T06:48:41;96660.34;;;26.25;39.40
40838;BME280;29632;49.168;9.848;2022-07-29T06:51:08;96661.22;;;26.31;39.33
40838;BME280;29632;49.168;9.848;2022-07-29T06:53:35;96663.66;;;26.32;39.46
40838;BME280;29632;49.168;9.848;2022-07-29T06:56:03;96673.84;;;26.35;39.50
40838;BME280;29632;49.168;9.848;2022-07-29T06:58:30;96666.69;;;26.41;39.25
40838;BME280;29632;49.168;9.848;2022-07-29T07:00:58;96675.25;;;26.43;39.28
40838;BME280;29632;49.168;9.848;2022-07-29T07:03:24;96678.78;;;26.49;39.68
40838;BME280;29632;49.168;9.848;2022-07-29T07:05:52;96682.09;;;26.56;39.41
40838;BME280;29632;49.168;9.848;2022-07-29T07:08:18;96674.41;;;26.60;39.53
40838;BME280;29632;49.168;9.848;2022-07-29T07:10:45;96672.63;;;26.65;39.46
40838;BME280;29632;49.168;9.848;2022-07-29T07:13:10;96675.00;;;26.62;39.52
40838;BME280;29632;49.168;9.848;2022-07-29T07:15:37;96676.34;;;26.64;39.33
40838;BME280;29632;49.168;9.848;2022-07-29T07:18:04;96670.75;;;26.66;39.45
40838;BME280;29632;49.168;9.848;2022-07-29T07:20:32;96684.16;;;26.71;39.26
40838;BME280;29632;49.168;9.848;2022-07-29T07:22:58;96681.81;;;26.74;39.13
40838;BME280;29632;49.168;9.848;2022-07-29T07:25:23;96679.19;;;26.80;38.70
40838;BME280;29632;49.168;9.848;2022-07-29T07:27:49;96679.50;;;26.83;38.66
40838;BME280;29632;49.168;9.848;2022-07-29T07:30:15;96680.06;;;26.85;38.68
40838;BME280;29632;49.168;9.848;2022-07-29T07:32:41;96679.81;;;26.87;38.75
40838;BME280;29632;49.168;9.848;2022-07-29T07:35:08;96668.94;;;26.93;38.60
40838;BME280;29632;49.168;9.848;2022-07-29T07:37:35;96675.19;;;27.04;38.67
40838;BME280;29632;49.168;9.848;2022-07-29T07:40:02;96670.44;;;27.11;38.54
40838;BME280;29632;49.168;9.848;2022-07-29T07:42:28;96670.00;;;27.20;38.32
40838;BME280;29632;49.168;9.848;2022-07-29T07:44:54;96664.44;;;27.26;38.32
40838;BME280;29632;49.168;9.848;2022-07-29T07:47:19;96674.69;;;27.35;38.25
40838;BME280;29632;49.168;9.848;2022-07-29T07:49:46;96676.34;;;27.41;38.33
40838;BME280;29632;49.168;9.848;2022-07-29T07:52:14;96674.47;;;27.41;38.31
40838;BME280;29632;49.168;9.848;2022-07-29T07:54:40;96668.38;;;27.46;38.33
40838;BME280;29632;49.168;9.848;2022-07-29T07:57:05;96668.69;;;27.49;38.53
40838;BME280;29632;49.168;9.848;2022-07-29T07:59:32;96677.50;;;27.50;38.60
40838;BME280;29632;49.168;9.848;2022-07-29T08:01:57;96676.19;;;27.53;38.54
40838;BME280;29632;49.168;9.848;2022-07-29T08:04:23;96675.41;;;27.57;38.65
40838;BME280;29632;49.168;9.848;2022-07-29T08:06:50;96673.84;;;27.61;38.46
40838;BME280;29632;49.168;9.848;2022-07-29T08:09:16;96672.28;;;27.65;38.54
40838;BME280;29632;49.168;9.848;2022-07-29T08:11:42;96673.41;;;27.75;38.38
40838;BME280;29632;49.168;9.848;2022-07-29T08:14:07;96679.09;;;27.83;38.28
40838;BME280;29632;49.168;9.848;2022-07-29T08:16:33;96669.81;;;27.91;38.10
40838;BME280;29632;49.168;9.848;2022-07-29T08:18:59;96667.47;;;28.00;37.96
40838;BME280;29632;49.168;9.848;2022-07-29T08:21:25;96667.50;;;28.05;38.03
40838;BME280;29632;49.168;9.848;2022-07-29T08:23:51;96670.75;;;28.12;37.54
40838;BME280;29632;49.168;9.848;2022-07-29T08:26:42;96672.13;;;28.20;37.65
40838;BME280;29632;49.168;9.848;2022-07-29T08:29:08;96678.59;;;28.24;37.55
40838;BME280;29632;49.168;9.848;2022-07-29T08:31:36;96674.31;;;28.28;37.16
40838;BME280;29632;49.168;9.848;2022-07-29T08:34:03;96679.41;;;28.30;37.25
40838;BME280;29632;49.168;9.848;2022-07-29T08:36:30;96679.97;;;28.37;37.11
40838;BME280;29632;49.168;9.848;2022-07-29T08:38:56;96689.38;;;28.44;37.06
40838;BME280;29632;49.168;9.848;2022-07-29T08:41:22;96688.41;;;28.56;36.76
40838;BME280;29632;49.168;9.848;2022-07-29T08:43:49;96681.22;;;28.67;36.45
40838;BME280;29632;49.168;9.848;2022-07-29T08:46:17;96683.41;;;28.80;36.79
40838;BME280;29632;49.168;9.848;2022-07-29T08:48:43;96679.69;;;28.91;36.36
40838;BME280;29632;49.168;9.848;2022-07-29T08:51:19;96687.72;;;28.96;36.28
40838;BME280;29632;49.168;9.848;2022-07-29T08:53:47;96680.78;;;29.11;36.35
40838;BME280;29632;49.168;9.848;2022-07-29T08:56:15;96683.00;;;29.24;36.53
40838;BME280;29632;49.168;9.848;2022-07-29T08:58:46;96686.50;;;29.35;36.06
40838;BME280;29632;49.168;9.848;2022-07-29T09:01:16;96685.44;;;29.41;36.11
40838;BME280;29632;49.168;9.848;2022-07-29T09:03:44;96683.81;;;29.50;35.96
40838;BME280;29632;49.168;9.848;2022-07-29T09:06:14;96680.06;;;29.56;35.57
40838;BME280;29632;49.168;9.848;2022-07-29T09:08:40;96672.56;;;29.64;35.92
40838;BME280;29632;49.168;9.848;2022-07-29T09:11:07;96677.94;;;29.69;35.93
40838;BME280;29632;49.168;9.848;2022-07-29T09:13:33;96677.94;;;29.69;35.65
40838;BME280;29632;49.168;9.848;2022-07-29T09:16:00;96678.72;;;29.69;35.46
40838;BME280;29632;49.168;9.848;2022-07-29T09:18:45;96675.25;;;29.64;35.50
40838;BME280;29632;49.168;9.848;2022-07-29T09:21:13;96671.47;;;29.65;35.54
40838;BME280;29632;49.168;9.848;2022-07-29T09:24:12;96674.44;;;29.63;35.95
40838;BME280;29632;49.168;9.848;2022-07-29T09:26:41;96666.63;;;29.72;35.40
40838;BME280;29632;49.168;9.848;2022-07-29T09:29:16;96665.59;;;29.83;35.62
40838;BME280;29632;49.168;9.848;2022-07-29T09:31:45;96665.28;;;29.95;35.31
40838;BME280;29632;49.168;9.848;2022-07-29T09:34:15;96663.97;;;29.98;35.19
40838;BME280;29632;49.168;9.848;2022-07-29T09:36:46;96661.53;;;30.01;35.39
40838;BME280;29632;49.168;9.848;2022-07-29T09:39:14;96676.00;;;30.10;35.18
40838;BME280;29632;49.168;9.848;2022-07-29T09:41:51;96654.78;;;30.19;35.24
40838;BME280;29632;49.168;9.848;2022-07-29T09:44:21;96661.75;;;30.36;34.87
40838;BME280;29632;49.168;9.848;2022-07-29T09:47:03;96660.63;;;30.47;34.75
40838;BME280;29632;49.168;9.848;2022-07-29T09:49:34;96656.25;;;30.61;34.71
40838;BME280;29632;49.168;9.848;2022-07-29T09:52:07;96661.03;;;30.75;34.99
40838;BME280;29632;49.168;9.848;2022-07-29T09:54:34;96656.94;;;30.87;34.20
40838;BME280;29632;49.168;9.848;2022-07-29T09:57:09;96651.28;;;30.94;34.22
40838;BME280;29632;49.168;9.848;2022-07-29T10:02:35;96656.53;;;31.15;33.61
40838;BME280;29632;49.168;9.848;2022-07-29T10:05:05;96651.44;;;31.13;33.67
40838;BME280;29632;49.168;9.848;2022-07-29T10:07:52;96658.44;;;31.14;33.78
40838;BME280;29632;49.168;9.848;2022-07-29T10:13:01;96648.81;;;31.03;34.09
40838;BME280;29632;49.168;9.848;2022-07-29T10:15:31;96653.34;;;31.08;33.87
40838;BME280;29632;49.168;9.848;2022-07-29T10:17:59;96645.53;;;31.11;34.09
40838;BME280;29632;49.168;9.848;2022-07-29T10:20:27;96636.94;;;31.09;34.06
40838;BME280;29632;49.168;9.848;2022-07-29T10:22:54;96649.84;;;31.12;34.15
40838;BME280;29632;49.168;9.848;2022-07-29T10:25:20;96646.31;;;31.12;34.02
40838;BME280;29632;49.168;9.848;2022-07-29T10:27:47;96636.91;;;31.14;33.96
40838;BME280;29632;49.168;9.848;2022-07-29T10:30:15;96651.63;;;31.22;33.84
40838;BME280;29632;49.168;9.848;2022-07-29T10:35:59;96661.00;;;31.30;34.08
40838;BME280;29632;49.168;9.848;2022-07-29T10:44:22;96657.53;;;31.24;33.77
40838;BME280;29632;49.168;9.848;2022-07-29T10:46:50;96656.75;;;31.23;33.70
40838;BME280;29632;49.168;9.848;2022-07-29T10:49:20;96652.94;;;31.30;33.72
40838;BME280;29632;49.168;9.848;2022-07-29T10:52:07;96663.91;;;31.38;33.73
40838;BME280;29632;49.168;9.848;2022-07-29T10:54:45;96650.13;;;31.45;33.83
40838;BME280;29632;49.168;9.848;2022-07-29T10:57:29;96635.25;;;31.58;33.53
40838;BME280;29632;49.168;9.848;2022-07-29T11:05:05;96633.50;;;31.72;33.41
40838;BME280;29632;49.168;9.848;2022-07-29T11:07:33;96627.59;;;31.70;33.31
40838;BME280;29632;49.168;9.848;2022-07-29T11:15:18;96630.56;;;31.69;33.15
40838;BME280;29632;49.168;9.848;2022-07-29T11:20:51;96618.22;;;31.92;33.35
40838;BME280;29632;49.168;9.848;2022-07-29T11:23:30;96615.69;;;32.06;32.96
40838;BME280;29632;49.168;9.848;2022-07-29T11:26:18;96619.06;;;32.16;32.47
40838;BME280;29632;49.168;9.848;2022-07-29T11:29:08;96617.09;;;32.22;32.11
40838;BME280;29632;49.168;9.848;2022-07-29T11:31:44;96621.66;;;32.27;32.28
40838;BME280;29632;49.168;9.848;2022-07-29T11:34:31;96618.50;;;32.20;32.00
40838;BME280;29632;49.168;9.848;2022-07-29T11:45:19;96617.22;;;32.60;32.43
40838;BME280;29632;49.168;9.848;2022-07-29T11:50:33;96615.03;;;32.81;32.15
40838;BME280;29632;49.168;9.848;2022-07-29T11:53:00;96621.41;;;32.90;32.22
40838;BME280;29632;49.168;9.848;2022-07-29T11:55:26;96616.44;;;32.98;32.03
40838;BME280;29632;49.168;9.848;2022-07-29T11:57:59;96610.75;;;32.99;32.33
40838;BME280;29632;49.168;9.848;2022-07-29T12:02:57;96609.63;;;33.00;32.24
40838;BME280;29632;49.168;9.848;2022-07-29T12:05:41;96612.41;;;32.95;32.22
40838;BME280;29632;49.168;9.848;2022-07-29T12:10:44;96608.41;;;32.92;32.21
40838;BME280;29632;49.168;9.848;2022-07-29T12:13:13;96606.22;;;32.95;31.95
40838;BME280;29632;49.168;9.848;2022-07-29T12:15:40;96595.44;;;32.95;32.02
40838;BME280;29632;49.168;9.848;2022-07-29T12:18:14;96589.84;;;32.91;31.97
40838;BME280;29632;49.168;9.848;2022-07-29T12:20:41;96589.03;;;32.90;32.12
40838;BME280;29632;49.168;9.848;2022-07-29T12:23:08;96592.03;;;32.89;32.02
40838;BME280;29632;49.168;9.848;2022-07-29T12:25:35;96602.53;;;32.90;31.76
40838;BME280;29632;49.168;9.848;2022-07-29T12:28:06;96594.44;;;32.90;32.02
40838;BME280;29632;49.168;9.848;2022-07-29T12:30:47;96592.09;;;32.84;31.89
40838;BME280;29632;49.168;9.848;2022-07-29T12:33:28;96595.38;;;32.81;31.77
40838;BME280;29632;49.168;9.848;2022-07-29T12:35:57;96597.00;;;32.82;31.96
40838;BME280;29632;49.168;9.848;2022-07-29T12:38:24;96606.66;;;32.83;32.17
40838;BME280;29632;49.168;9.848;2022-07-29T12:40:52;96607.44;;;32.83;32.28
40838;BME280;29632;49.168;9.848;2022-07-29T12:43:24;96613.31;;;32.71;32.55
40838;BME280;29632;49.168;9.848;2022-07-29T12:45:55;96621.13;;;32.49;33.51
40838;BME280;29632;49.168;9.848;2022-07-29T12:48:39;96617.59;;;32.29;34.27
40838;BME280;29632;49.168;9.848;2022-07-29T12:51:06;96594.53;;;32.18;34.66
40838;BME280;29632;49.168;9.848;2022-07-29T12:53:35;96598.03;;;32.18;35.62
40838;BME280;29632;49.168;9.848;2022-07-29T12:56:03;96593.25;;;32.15;35.55
40838;BME280;29632;49.168;9.848;2022-07-29T12:58:38;96598.41;;;32.12;36.12
40838;BME280;29632;49.168;9.848;2022-07-29T13:01:12;96597.81;;;32.15;35.78
40838;BME280;29632;49.168;9.848;2022-07-29T13:03:55;96600.84;;;32.08;35.49
40838;BME280;29632;49.168;9.848;2022-07-29T13:06:44;96596.56;;;32.07;36.21
40838;BME280;29632;49.168;9.848;2022-07-29T13:09:15;96599.69;;;32.14;35.91
40838;BME280;29632;49.168;9.848;2022-07-29T13:11:44;96594.59;;;32.13;35.67
40838;BME280;29632;49.168;9.848;2022-07-29T13:14:20;96596.28;;;32.09;36.11
40838;BME280;29632;49.168;9.848;2022-07-29T13:17:12;96599.25;;;32.07;36.19
40838;BME280;29632;49.168;9.848;2022-07-29T13:19:47;96593.06;;;32.07;35.99
40838;BME280;29632;49.168;9.848;2022-07-29T13:22:24;96598.75;;;32.05;35.85
40838;BME280;29632;49.168;9.848;2022-07-29T13:24:55;96594.41;;;32.04;35.23
40838;BME280;29632;49.168;9.848;2022-07-29T13:27:27;96589.56;;;32.01;35.09
40838;BME280;29632;49.168;9.848;2022-07-29T13:29:56;96592.31;;;31.96;34.88
40838;BME280;29632;49.168;9.848;2022-07-29T13:32:23;96589.47;;;31.87;34.33
40838;BME280;29632;49.168;9.848;2022-07-29T13:34:50;96592.19;;;31.82;34.53
40838;BME280;29632;49.168;9.848;2022-07-29T13:37:16;96592.28;;;31.77;34.33
40838;BME280;29632;49.168;9.848;2022-07-29T13:39:42;96588.53;;;31.73;34.16
40838;BME280;29632;49.168;9.848;2022-07-29T13:42:08;96583.16;;;31.73;34.04
40838;BME280;29632;49.168;9.848;2022-07-29T13:44:35;96588.53;;;31.73;34.09
40838;BME280;29632;49.168;9.848;2022-07-29T13:47:01;96588.06;;;31.66;33.96
40838;BME280;29632;49.168;9.848;2022-07-29T13:49:27;96598.13;;;31.55;33.74
40838;BME280;29632;49.168;9.848;2022-07-29T13:51:53;96597.69;;;31.42;33.75
40838;BME280;29632;49.168;9.848;2022-07-29T13:54:20;96582.66;;;31.36;33.66
40838;BME280;29632;49.168;9.848;2022-07-29T13:56:45;96577.28;;;31.36;33.99
40838;BME280;29632;49.168;9.848;2022-07-29T13:59:12;96581.13;;;31.30;33.70